Time;durP1;ratioP1;P1;durP2;ratioP2;P2;SDS_P1;SDS_P2;PMS_P1;PMS_P2;Temp;Humidity;BMP_temperature;BMP_pressure;BME280_temperature;BME280_humidity;BME280_pressure;Samples;Min_cycle;Max_cycle;Signal;HPM_P1;HPM_P2
2024/01/15 00:01:45;;;;;;;46.65;17.92;;;0.10;99.90;;;;;;5068685;28;20454;-63
2024/01/15 00:04:11;;;;;;;62.92;29.60;;;0.10;99.90;;;;;;5071791;28;20073;-63
2024/01/15 00:06:36;;;;;;;34.40;12.65;;;0.20;99.90;;;;;;5072809;28;20029;-63
2024/01/15 00:09:02;;;;;;;58.13;20.10;;;0.20;99.90;;;;;;5074134;28;20032;-63
2024/01/15 00:11:28;;;;;;;46.50;17.38;;;0.20;99.90;;;;;;5075860;28;20023;-64
2024/01/15 00:16:29;;;;;;;58.60;20.60;;;0.20;99.90;;;;;;5766020;22;20071;-63
2024/01/15 00:18:55;;;;;;;55.38;19.00;;;0.20;99.90;;;;;;5027543;28;20029;-62
2024/01/15 00:21:21;;;;;;;59.35;20.88;;;0.20;99.90;;;;;;5029112;28;20542;-62
2024/01/15 00:23:46;;;;;;;65.93;27.33;;;0.20;99.90;;;;;;5028569;28;20021;-63
2024/01/15 00:26:13;;;;;;;48.45;17.48;;;0.20;99.90;;;;;;5031372;28;20029;-62
2024/01/15 00:28:38;;;;;;;46.30;18.30;;;0.10;99.90;;;;;;5030508;28;20025;-63
2024/01/15 00:31:05;;;;;;;54.25;23.88;;;0.20;99.90;;;;;;5027741;28;20052;-63
2024/01/15 00:33:31;;;;;;;52.58;17.27;;;;;;;;;;5025162;28;20119;-62
2024/01/15 00:35:57;;;;;;;50.33;17.50;;;0.20;99.90;;;;;;5027206;28;20029;-62
2024/01/15 00:38:22;;;;;;;69.63;22.40;;;0.20;99.90;;;;;;5028024;28;20220;-62
2024/01/15 00:40:48;;;;;;;65.82;28.58;;;0.20;99.90;;;;;;5028712;28;20013;-62
2024/01/15 00:43:14;;;;;;;47.55;16.60;;;0.20;99.90;;;;;;5029176;28;20029;-62
2024/01/15 00:45:40;;;;;;;61.17;22.75;;;0.20;99.90;;;;;;5029205;28;20387;-62
2024/01/15 00:48:06;;;;;;;66.93;23.23;;;0.20;99.90;;;;;;5028626;28;20030;-62
2024/01/15 00:50:31;;;;;;;67.40;24.48;;;0.30;99.90;;;;;;5029048;28;20029;-63
2024/01/15 00:52:57;;;;;;;63.67;22.70;;;0.30;99.90;;;;;;5028719;28;20472;-63
2024/01/15 00:55:23;;;;;;;46.42;19.65;;;0.20;99.90;;;;;;5028262;28;20033;-62
2024/01/15 00:57:48;;;;;;;47.58;17.85;;;0.30;99.90;;;;;;5027123;28;20037;-62
2024/01/15 01:00:14;;;;;;;72.35;25.10;;;0.30;99.90;;;;;;5029316;28;20097;-62
2024/01/15 01:02:40;;;;;;;55.42;19.80;;;0.30;99.90;;;;;;5027693;28;20104;-62
2024/01/15 01:05:06;;;;;;;63.60;20.77;;;0.30;99.90;;;;;;5029474;28;20380;-62
2024/01/15 01:07:31;;;;;;;56.30;18.63;;;0.30;99.90;;;;;;5029773;28;20025;-63
2024/01/15 01:09:57;;;;;;;54.22;24.25;;;0.30;99.90;;;;;;5028984;28;20480;-63
2024/01/15 01:12:23;;;;;;;62.08;25.48;;;0.30;99.90;;;;;;5029619;28;20033;-63
2024/01/15 01:14:48;;;;;;;50.90;22.48;;;0.30;99.90;;;;;;5029005;28;20029;-62
2024/01/15 01:17:14;;;;;;;64.93;22.95;;;0.30;99.90;;;;;;5028075;28;20088;-62
2024/01/15 01:19:40;;;;;;;60.22;19.52;;;0.30;99.90;;;;;;5028490;28;20037;-63
2024/01/15 01:22:05;;;;;;;54.40;20.02;;;0.30;99.90;;;;;;5029066;28;20030;-62
2024/01/15 01:24:31;;;;;;;67.15;24.27;;;0.30;99.90;;;;;;5030322;28;20116;-63
2024/01/15 01:26:57;;;;;;;52.88;20.13;;;0.30;99.90;;;;;;5029305;28;20425;-61
2024/01/15 01:29:22;;;;;;;51.00;20.67;;;0.30;99.90;;;;;;5028236;28;20026;-61
2024/01/15 01:31:48;;;;;;;50.90;19.58;;;0.30;99.90;;;;;;5029028;28;20105;-61
2024/01/15 01:34:16;;;;;;;47.38;17.60;;;0.30;99.90;;;;;;5027748;28;20040;-62
2024/01/15 01:36:42;;;;;;;40.65;15.30;;;0.30;99.90;;;;;;5026128;28;20492;-62
2024/01/15 01:39:09;;;;;;;60.20;21.65;;;0.30;99.90;;;;;;5032235;28;20606;-62
2024/01/15 01:41:34;;;;;;;74.00;23.67;;;0.40;99.90;;;;;;5028958;28;20074;-62
2024/01/15 01:44:00;;;;;;;67.53;27.17;;;0.30;99.90;;;;;;5029224;28;20055;-62
2024/01/15 01:46:27;;;;;;;48.70;18.38;;;0.40;99.90;;;;;;5033311;28;20033;-62
2024/01/15 01:48:55;;;;;;;51.03;18.80;;;0.40;99.90;;;;;;5028821;28;20030;-62
2024/01/15 01:51:22;;;;;;;59.45;25.50;;;1.00;99.90;;;;;;5033543;28;20033;-62
2024/01/15 01:53:50;;;;;;;38.97;16.65;;;0.40;99.90;;;;;;5031339;28;20025;-62
2024/01/15 01:56:16;;;;;;;62.58;20.70;;;0.40;99.90;;;;;;5031669;28;20033;-62
2024/01/15 01:58:42;;;;;;;42.25;15.25;;;0.40;99.90;;;;;;5034050;28;20032;-61
2024/01/15 02:01:08;;;;;;;70.32;23.27;;;0.30;99.90;;;;;;5032774;28;20443;-62
2024/01/15 02:03:34;;;;;;;66.70;24.65;;;0.30;99.90;;;;;;5029923;28;20033;-62
2024/01/15 02:06:00;;;;;;;77.38;24.23;;;0.30;99.90;;;;;;5033103;28;20471;-62
2024/01/15 02:08:27;;;;;;;39.15;14.57;;;0.40;99.90;;;;;;5031833;28;20030;-61
2024/01/15 02:10:52;;;;;;;52.25;17.38;;;0.40;99.90;;;;;;5032193;28;20026;-62
2024/01/15 02:13:19;;;;;;;41.05;14.68;;;0.40;99.90;;;;;;5031022;28;20026;-61
2024/01/15 02:15:44;;;;;;;61.35;23.25;;;0.40;99.90;;;;;;5032049;28;20117;-62
2024/01/15 02:18:10;;;;;;;53.40;18.05;;;0.40;99.90;;;;;;5033717;28;20109;-62
2024/01/15 02:20:36;;;;;;;50.08;18.27;;;0.40;99.90;;;;;;5032388;28;20029;-62
2024/01/15 02:23:15;;;;;;;44.25;16.95;;;0.40;99.90;;;;;;5031880;28;20029;-62
2024/01/15 02:25:45;;;;;;;48.38;23.58;;;0.40;99.90;;;;;;5032390;28;20057;-62
2024/01/15 02:28:15;;;;;;;45.22;18.45;;;0.50;99.90;;;;;;5031641;28;20068;-62
2024/01/15 02:30:42;;;;;;;48.88;22.98;;;0.50;99.90;;;;;;5031980;28;20033;-62
2024/01/15 02:33:09;;;;;;;39.85;15.57;;;0.50;99.90;;;;;;5028615;28;20550;-62
2024/01/15 02:35:38;;;;;;;36.42;14.40;;;0.50;99.90;;;;;;5032497;28;20026;-61
2024/01/15 02:38:07;;;;;;;42.60;15.60;;;0.50;99.90;;;;;;5030258;28;20480;-63
2024/01/15 02:40:33;;;;;;;40.43;16.47;;;0.50;99.90;;;;;;5033700;28;20080;-63
2024/01/15 02:42:59;;;;;;;48.55;21.23;;;0.40;99.90;;;;;;5031311;28;20356;-62
2024/01/15 02:45:25;;;;;;;50.17;20.42;;;0.40;99.90;;;;;;5030822;28;20574;-62
2024/01/15 02:47:51;;;;;;;52.55;18.63;;;0.40;99.90;;;;;;5031314;28;20040;-63
2024/01/15 02:50:16;;;;;;;50.05;19.38;;;0.40;99.90;;;;;;5031884;28;20025;-62
2024/01/15 02:52:42;;;;;;;51.33;19.48;;;0.40;99.90;;;;;;5030756;28;20067;-63
2024/01/15 02:55:08;;;;;;;45.65;17.67;;;0.40;99.90;;;;;;5030568;28;20411;-63
2024/01/15 02:57:34;;;;;;;46.22;16.83;;;0.40;99.90;;;;;;5031255;28;20033;-63
2024/01/15 03:00:00;;;;;;;36.05;13.77;;;0.40;99.90;;;;;;5031497;28;20079;-63
2024/01/15 03:02:25;;;;;;;38.28;14.80;;;0.40;99.90;;;;;;5028800;28;20029;-63
2024/01/15 03:04:51;;;;;;;44.85;17.60;;;0.40;99.90;;;;;;5031046;28;20048;-64
2024/01/15 03:07:17;;;;;;;59.47;20.10;;;0.40;99.90;;;;;;5027695;28;20057;-63
2024/01/15 03:09:42;;;;;;;44.72;16.70;;;0.50;99.90;;;;;;5031700;28;20480;-63
2024/01/15 03:12:08;;;;;;;31.48;13.00;;;0.40;99.90;;;;;;5030826;28;20105;-62
2024/01/15 03:14:34;;;;;;;34.83;13.50;;;0.40;99.90;;;;;;5031266;28;20116;-63
2024/01/15 03:17:00;;;;;;;39.67;15.10;;;0.50;99.90;;;;;;5031038;28;20050;-63
2024/01/15 03:19:26;;;;;;;37.25;14.48;;;0.50;99.90;;;;;;5031646;28;20068;-63
2024/01/15 03:21:52;;;;;;;48.97;24.52;;;0.50;99.90;;;;;;5030762;28;20040;-63
2024/01/15 03:24:17;;;;;;;51.90;23.33;;;0.50;99.90;;;;;;5030061;28;20018;-62
2024/01/15 03:26:43;;;;;;;48.60;16.52;;;0.50;99.90;;;;;;5031350;28;20028;-63
2024/01/15 03:29:08;;;;;;;39.88;16.63;;;0.50;99.90;;;;;;5030931;28;20026;-63
2024/01/15 03:31:34;;;;;;;57.20;19.77;;;0.50;99.90;;;;;;5031426;28;20037;-63
2024/01/15 03:34:00;;;;;;;56.45;19.23;;;0.50;99.90;;;;;;5028742;28;20080;-62
2024/01/15 03:36:25;;;;;;;45.63;15.57;;;0.50;99.90;;;;;;5031310;28;20028;-63
2024/01/15 03:38:51;;;;;;;30.00;11.75;;;0.50;99.90;;;;;;5033235;28;20033;-63
2024/01/15 03:41:17;;;;;;;40.63;15.38;;;0.50;99.90;;;;;;5030734;28;20438;-62
2024/01/15 03:43:42;;;;;;;30.42;13.52;;;0.50;99.90;;;;;;5028002;28;20116;-62
2024/01/15 03:46:08;;;;;;;47.90;15.48;;;0.50;99.90;;;;;;5030127;28;20040;-61
2024/01/15 03:48:33;;;;;;;37.67;12.98;;;0.50;99.90;;;;;;5029839;28;20261;-61
2024/01/15 03:50:59;;;;;;;48.05;18.40;;;2.90;99.90;;;;;;5029065;28;20061;-61
2024/01/15 03:53:25;;;;;;;29.83;10.85;;;0.50;99.90;;;;;;5029663;28;20021;-62
2024/01/15 03:55:51;;;;;;;45.63;16.98;;;0.50;99.90;;;;;;5029555;28;20108;-62
2024/01/15 03:58:16;;;;;;;57.50;19.38;;;0.50;99.90;;;;;;5033008;28;20025;-62
2024/01/15 04:00:42;;;;;;;37.05;13.20;;;0.50;99.90;;;;;;5025602;28;20021;-63
2024/01/15 04:03:08;;;;;;;39.95;13.25;;;0.50;99.90;;;;;;5026229;28;20036;-62
2024/01/15 04:05:34;;;;;;;37.17;15.60;;;0.50;99.90;;;;;;5029559;28;20026;-62
2024/01/15 04:07:59;;;;;;;47.50;21.17;;;0.50;99.90;;;;;;5028485;28;20061;-63
2024/01/15 04:10:25;;;;;;;47.13;17.60;;;0.50;99.90;;;;;;5029698;28;20056;-62
2024/01/15 04:12:51;;;;;;;44.53;18.10;;;0.50;99.90;;;;;;5028192;28;20071;-62
2024/01/15 04:15:16;;;;;;;38.35;14.27;;;0.50;99.90;;;;;;5024924;28;20087;-62
2024/01/15 04:17:42;;;;;;;33.88;13.73;;;0.50;99.90;;;;;;5028728;28;20045;-63
2024/01/15 04:20:08;;;;;;;43.70;19.65;;;0.60;99.90;;;;;;5027055;28;20031;-67
2024/01/15 04:22:37;;;;;;;53.88;19.08;;;0.50;99.90;;;;;;5027764;28;20106;-62
2024/01/15 04:25:03;;;;;;;39.25;15.77;;;0.60;99.90;;;;;;5027461;28;20392;-62
2024/01/15 04:27:29;;;;;;;43.38;15.75;;;0.60;99.90;;;;;;5036120;28;20021;-62
2024/01/15 04:29:54;;;;;;;45.17;17.83;;;0.60;99.90;;;;;;5028577;28;20026;-62
2024/01/15 04:32:20;;;;;;;21.65;6.35;;;0.60;99.90;;;;;;5027098;28;20022;-63
2024/01/15 04:34:46;;;;;;;31.55;12.13;;;0.60;99.90;;;;;;5029192;28;20026;-62
2024/01/15 04:37:13;;;;;;;31.40;12.68;;;0.60;99.90;;;;;;5028066;28;20027;-62
2024/01/15 04:39:39;;;;;;;36.20;18.48;;;0.60;99.90;;;;;;5026160;28;20176;-62
2024/01/15 04:42:05;;;;;;;29.33;12.52;;;0.60;99.90;;;;;;5028263;28;20531;-63
2024/01/15 04:44:30;;;;;;;32.03;13.98;;;0.60;99.90;;;;;;5026742;28;20033;-62
2024/01/15 04:46:56;;;;;;;37.00;13.50;;;0.60;99.90;;;;;;5027069;28;20107;-64
2024/01/15 04:49:21;;;;;;;27.98;10.32;;;0.60;99.90;;;;;;5028461;28;20037;-63
2024/01/15 04:51:47;;;;;;;29.67;10.98;;;0.60;99.90;;;;;;5028323;28;20055;-62
2024/01/15 04:54:17;;;;;;;34.22;12.85;;;0.60;99.90;;;;;;5028089;28;20025;-62
2024/01/15 04:56:43;;;;;;;38.13;12.52;;;0.60;99.90;;;;;;5028319;28;20638;-62
2024/01/15 04:59:08;;;;;;;27.45;11.10;;;0.60;99.90;;;;;;5028104;28;20033;-63
2024/01/15 05:01:34;;;;;;;29.23;11.07;;;0.60;99.90;;;;;;5027082;28;20028;-63
2024/01/15 05:04:00;;;;;;;24.77;10.98;;;0.60;99.90;;;;;;5021710;28;20029;-63
2024/01/15 05:06:26;;;;;;;25.77;9.13;;;0.60;99.90;;;;;;5019013;28;20412;-63
2024/01/15 05:08:51;;;;;;;26.25;10.10;;;0.60;99.90;;;;;;5026545;28;20057;-63
2024/01/15 05:11:17;;;;;;;25.48;10.10;;;0.60;99.90;;;;;;5021506;28;20025;-62
2024/01/15 05:13:42;;;;;;;21.83;8.90;;;0.60;99.90;;;;;;5019018;28;20527;-62
2024/01/15 05:16:08;;;;;;;33.13;15.35;;;0.70;99.90;;;;;;5022872;28;20607;-62
2024/01/15 05:18:34;;;;;;;28.05;11.00;;;0.70;99.90;;;;;;5024468;28;20358;-63
2024/01/15 05:21:00;;;;;;;24.58;8.90;;;;;;;;;;5023307;28;20033;-62
2024/01/15 05:23:25;;;;;;;24.30;9.43;;;0.70;99.90;;;;;;5022938;28;20018;-62
2024/01/15 05:25:51;;;;;;;30.42;11.90;;;0.70;99.90;;;;;;5017061;28;20409;-62
2024/01/15 05:28:17;;;;;;;24.33;10.02;;;0.70;99.90;;;;;;5022504;28;20061;-63
2024/01/15 05:30:42;;;;;;;41.88;23.88;;;0.70;99.90;;;;;;5024886;28;20026;-62
2024/01/15 05:33:08;;;;;;;32.45;12.40;;;0.70;99.90;;;;;;5020687;28;20064;-63
2024/01/15 05:35:34;;;;;;;32.80;12.75;;;0.70;99.90;;;;;;5023056;28;20080;-63
2024/01/15 05:37:59;;;;;;;34.65;12.75;;;0.70;99.90;;;;;;5022193;28;20403;-63
2024/01/15 05:40:25;;;;;;;37.33;13.82;;;0.70;99.90;;;;;;5020926;28;20043;-63
2024/01/15 05:42:51;;;;;;;36.08;12.13;;;0.70;99.90;;;;;;5026169;28;20017;-63
2024/01/15 05:45:16;;;;;;;24.10;8.57;;;0.70;99.90;;;;;;5024530;28;20523;-63
2024/01/15 05:47:43;;;;;;;30.52;14.80;;;0.70;99.90;;;;;;5022265;28;20195;-63
2024/01/15 05:50:09;;;;;;;33.80;13.07;;;0.70;99.90;;;;;;5019882;28;20033;-63
2024/01/15 05:52:35;;;;;;;36.97;14.30;;;0.70;99.90;;;;;;5024169;28;20495;-63
2024/01/15 05:55:01;;;;;;;38.92;15.52;;;0.60;99.90;;;;;;5026421;28;20033;-63
2024/01/15 05:57:27;;;;;;;32.78;15.82;;;0.70;99.90;;;;;;5021411;28;20029;-63
2024/01/15 05:59:53;;;;;;;31.88;10.50;;;0.70;99.90;;;;;;5025129;28;20026;-63
2024/01/15 06:02:19;;;;;;;38.17;13.85;;;0.70;99.90;;;;;;5018683;28;20037;-63
2024/01/15 06:04:45;;;;;;;36.30;11.30;;;0.70;99.90;;;;;;5020071;28;20720;-63
2024/01/15 06:07:10;;;;;;;41.75;12.80;;;0.70;99.90;;;;;;5023766;28;20518;-62
2024/01/15 06:09:36;;;;;;;30.90;11.98;;;0.70;99.90;;;;;;5025471;28;20117;-63
2024/01/15 06:12:01;;;;;;;41.78;14.40;;;0.70;99.90;;;;;;5021356;28;20495;-62
2024/01/15 06:14:27;;;;;;;32.10;13.48;;;0.70;99.90;;;;;;5020757;28;20033;-62
2024/01/15 06:16:53;;;;;;;36.25;13.88;;;0.70;99.90;;;;;;5026891;28;20618;-63
2024/01/15 06:19:18;;;;;;;29.95;11.77;;;0.70;99.90;;;;;;5024020;28;20126;-63
2024/01/15 06:21:44;;;;;;;30.83;11.98;;;0.70;99.90;;;;;;5024556;28;20026;-62
2024/01/15 06:24:10;;;;;;;20.10;8.25;;;0.70;99.90;;;;;;5027103;28;20554;-63
2024/01/15 06:26:36;;;;;;;31.05;15.40;;;0.70;99.90;;;;;;5020267;28;20018;-63
2024/01/15 06:29:02;;;;;;;28.63;10.50;;;0.70;99.90;;;;;;5019796;28;20026;-63
2024/01/15 06:31:28;;;;;;;35.50;13.88;;;0.70;99.90;;;;;;5027377;28;20026;-62
2024/01/15 06:33:54;;;;;;;30.55;12.63;;;0.70;99.90;;;;;;5024232;28;20053;-62
2024/01/15 06:36:20;;;;;;;35.03;18.45;;;0.80;99.90;;;;;;5027541;28;20029;-62
2024/01/15 06:38:46;;;;;;;35.72;12.70;;;0.80;99.90;;;;;;5027187;28;20167;-62
2024/01/15 06:41:11;;;;;;;28.73;9.07;;;0.70;99.90;;;;;;5023519;28;20108;-62
2024/01/15 06:43:37;;;;;;;29.00;10.07;;;0.70;99.90;;;;;;5027695;28;20063;-62
2024/01/15 06:46:03;;;;;;;29.67;12.38;;;0.70;99.90;;;;;;5023162;28;20037;-62
2024/01/15 06:48:28;;;;;;;29.13;10.98;;;0.70;99.90;;;;;;5024462;28;20036;-62
2024/01/15 06:50:54;;;;;;;24.73;9.80;;;0.80;99.90;;;;;;5024757;28;20116;-62
2024/01/15 06:53:20;;;;;;;31.65;13.50;;;0.70;99.90;;;;;;5023499;28;20685;-62
2024/01/15 06:55:46;;;;;;;32.75;14.43;;;0.70;99.90;;;;;;5025696;28;20172;-62
2024/01/15 06:58:11;;;;;;;27.25;10.77;;;0.70;99.90;;;;;;5029239;28;20732;-62
2024/01/15 07:00:37;;;;;;;32.78;12.63;;;0.80;99.90;;;;;;5027748;28;20021;-63
2024/01/15 07:03:03;;;;;;;31.40;12.18;;;0.70;99.90;;;;;;5025909;28;20018;-64
2024/01/15 07:05:30;;;;;;;36.45;14.73;;;0.70;99.90;;;;;;5030512;28;20104;-62
2024/01/15 07:07:56;;;;;;;28.73;8.88;;;0.70;99.90;;;;;;5031190;28;20480;-63
2024/01/15 07:10:21;;;;;;;35.22;13.55;;;0.80;99.90;;;;;;5030493;28;20040;-63
2024/01/15 07:12:47;;;;;;;22.90;10.52;;;0.80;99.90;;;;;;5026805;28;20159;-62
2024/01/15 07:15:13;;;;;;;36.13;13.25;;;0.80;99.90;;;;;;5021674;28;20038;-62
2024/01/15 07:17:42;;;;;;;22.90;11.43;;;0.80;99.90;;;;;;5022851;28;20042;-63
2024/01/15 07:20:09;;;;;;;23.75;8.63;;;0.80;99.90;;;;;;5025394;28;20108;-63
2024/01/15 07:22:38;;;;;;;33.40;10.88;;;0.80;99.90;;;;;;5026167;28;20040;-62
2024/01/15 07:25:07;;;;;;;26.33;9.55;;;0.80;99.90;;;;;;5025353;28;20109;-63
2024/01/15 07:27:33;;;;;;;26.90;11.05;;;0.80;99.90;;;;;;5029137;28;20100;-62
2024/01/15 07:29:58;;;;;;;31.40;11.52;;;0.80;99.90;;;;;;5027449;28;20838;-63
2024/01/15 07:32:24;;;;;;;34.15;16.45;;;0.80;99.90;;;;;;5011493;28;20413;-63
2024/01/15 07:34:50;;;;;;;29.40;11.50;;;0.80;99.90;;;;;;5012650;28;20030;-63
2024/01/15 07:37:15;;;;;;;33.75;11.65;;;0.80;99.90;;;;;;5025921;28;20022;-64
2024/01/15 07:39:41;;;;;;;24.42;11.27;;;0.80;99.90;;;;;;5026332;28;20033;-63
2024/01/15 07:42:07;;;;;;;33.42;12.70;;;0.80;99.90;;;;;;5027635;28;20022;-63
2024/01/15 07:44:33;;;;;;;27.08;10.07;;;0.80;99.90;;;;;;5024016;28;20546;-62
2024/01/15 07:46:58;;;;;;;30.65;10.50;;;0.80;99.90;;;;;;5029549;28;20112;-63
2024/01/15 07:49:24;;;;;;;27.48;10.25;;;0.80;99.90;;;;;;5028460;28;20485;-63
2024/01/15 07:51:50;;;;;;;25.38;9.73;;;0.80;99.90;;;;;;5029527;28;20041;-62
2024/01/15 07:54:15;;;;;;;30.85;12.30;;;0.80;99.90;;;;;;5028341;28;20032;-63
2024/01/15 07:57:05;;;;;;;27.35;11.35;;;0.80;99.90;;;;;;5029672;28;20029;-63
2024/01/15 07:59:31;;;;;;;21.92;8.55;;;0.80;99.90;;;;;;5025709;28;20053;-62
2024/01/15 08:01:58;;;;;;;17.05;7.68;;;0.80;99.90;;;;;;5029239;28;20060;-62
2024/01/15 08:04:24;;;;;;;20.77;8.35;;;0.80;99.90;;;;;;5025256;28;20022;-63
2024/01/15 08:06:50;;;;;;;16.35;8.20;;;0.90;99.90;;;;;;5029602;28;20055;-62
2024/01/15 08:09:15;;;;;;;23.15;9.00;;;0.90;99.90;;;;;;5028278;28;20029;-62
2024/01/15 08:11:41;;;;;;;24.08;9.77;;;0.90;99.90;;;;;;5028282;28;20029;-63
2024/01/15 08:14:08;;;;;;;18.33;7.03;;;0.90;99.90;;;;;;5024481;28;20037;-62
2024/01/15 08:16:34;;;;;;;18.67;7.70;;;0.90;99.90;;;;;;5027987;28;20055;-63
2024/01/15 08:19:00;;;;;;;14.35;6.10;;;0.90;99.90;;;;;;5028145;28;20520;-63
2024/01/15 08:21:27;;;;;;;17.33;8.43;;;0.80;99.90;;;;;;5026876;28;20030;-63
2024/01/15 08:23:52;;;;;;;21.00;9.50;;;0.80;99.90;;;;;;5028767;28;20039;-63
2024/01/15 08:26:18;;;;;;;14.63;5.75;;;0.80;99.90;;;;;;5026742;28;20120;-64
2024/01/15 08:28:43;;;;;;;16.15;6.93;;;0.80;99.90;;;;;;5028654;28;20583;-63
2024/01/15 08:31:09;;;;;;;14.48;6.78;;;0.70;99.90;;;;;;5027929;28;20062;-64
2024/01/15 08:33:35;;;;;;;22.88;8.65;;;0.70;99.90;;;;;;5026540;28;20427;-63
2024/01/15 08:36:01;;;;;;;15.75;6.53;;;0.70;99.90;;;;;;5028483;28;20029;-63
2024/01/15 08:38:27;;;;;;;25.05;11.63;;;0.70;99.90;;;;;;5034789;28;20037;-63
2024/01/15 08:40:53;;;;;;;22.30;7.80;;;0.70;99.90;;;;;;5031170;28;20024;-63
2024/01/15 08:43:19;;;;;;;26.42;11.32;;;0.70;99.90;;;;;;5019117;28;20022;-62
2024/01/15 08:45:45;;;;;;;23.70;9.73;;;0.60;99.90;;;;;;5024462;28;20026;-62
2024/01/15 08:48:10;;;;;;;25.73;10.90;;;0.50;99.90;;;;;;5026595;28;20060;-62
2024/01/15 08:50:36;;;;;;;26.33;11.05;;;0.50;99.90;;;;;;5027987;28;20072;-62
2024/01/15 08:53:02;;;;;;;34.45;13.55;;;0.40;99.90;;;;;;5028112;28;20412;-62
2024/01/15 08:55:28;;;;;;;22.88;10.02;;;0.40;99.90;;;;;;5025353;28;20033;-62
2024/01/15 08:57:54;;;;;;;27.17;10.25;;;0.40;99.90;;;;;;5028326;28;20052;-62
2024/01/15 09:00:19;;;;;;;29.50;11.05;;;0.40;99.90;;;;;;5027373;28;20369;-62
2024/01/15 09:02:45;;;;;;;25.10;10.07;;;0.30;99.90;;;;;;5026460;28;20092;-63
2024/01/15 09:05:11;;;;;;;29.73;11.75;;;0.30;99.90;;;;;;5027874;28;20036;-63
2024/01/15 09:07:36;;;;;;;30.60;14.98;;;0.30;99.90;;;;;;5026512;28;20497;-62
2024/01/15 09:10:02;;;;;;;30.58;11.82;;;0.30;99.90;;;;;;5028337;28;20453;-63
2024/01/15 09:12:29;;;;;;;32.78;14.75;;;0.40;99.90;;;;;;5027360;28;20036;-63
2024/01/15 09:14:55;;;;;;;30.13;12.20;;;0.40;99.90;;;;;;5023869;28;20385;-62
2024/01/15 09:17:23;;;;;;;26.98;10.57;;;0.40;99.90;;;;;;5027194;28;20056;-63
2024/01/15 09:19:49;;;;;;;25.65;9.93;;;0.40;99.90;;;;;;5027906;28;20017;-63
2024/01/15 09:22:18;;;;;;;19.02;8.00;;;0.40;99.90;;;;;;5027602;28;20025;-63
2024/01/15 09:24:44;;;;;;;27.25;11.00;;;0.50;99.90;;;;;;5026812;28;20033;-63
2024/01/15 09:27:10;;;;;;;27.13;10.82;;;0.50;99.90;;;;;;5027128;28;20037;-63
2024/01/15 09:29:39;;;;;;;19.85;9.82;;;0.50;99.90;;;;;;5027641;28;20447;-63
2024/01/15 09:32:07;;;;;;;26.83;11.40;;;0.50;99.90;;;;;;5026114;28;20021;-63
2024/01/15 09:34:33;;;;;;;26.33;10.70;;;0.50;99.90;;;;;;5027179;28;20455;-63
2024/01/15 09:36:59;;;;;;;25.33;10.40;;;0.50;99.90;;;;;;5027740;28;20032;-63
2024/01/15 09:39:26;;;;;;;22.80;8.73;;;0.50;99.90;;;;;;5029675;28;20029;-63
2024/01/15 09:41:52;;;;;;;30.23;16.23;;;0.50;99.90;;;;;;5027607;28;20014;-63
2024/01/15 09:44:19;;;;;;;15.60;7.50;;;0.50;99.90;;;;;;5024251;28;20105;-63
2024/01/15 09:46:45;;;;;;;23.13;9.77;;;0.50;99.90;;;;;;5024022;28;20021;-63
2024/01/15 09:49:11;;;;;;;32.67;14.63;;;0.50;99.90;;;;;;5027119;28;20029;-62
2024/01/15 09:51:38;;;;;;;28.80;12.73;;;0.50;99.90;;;;;;5027736;28;20094;-62
2024/01/15 09:54:04;;;;;;;24.33;9.88;;;;;;;;;;5028115;28;20065;-62
2024/01/15 09:56:31;;;;;;;26.88;10.70;;;0.40;99.90;;;;;;5028662;28;20492;-61
2024/01/15 09:58:57;;;;;;;26.35;13.52;;;0.40;99.90;;;;;;5029813;28;20028;-61
2024/01/15 10:01:24;;;;;;;17.90;6.35;;;0.40;99.90;;;;;;5026764;28;20030;-61
2024/01/15 10:03:50;;;;;;;21.40;9.32;;;0.40;99.90;;;;;;5024556;28;20036;-62
2024/01/15 10:06:17;;;;;;;27.42;11.45;;;0.40;99.90;;;;;;5029398;28;20021;-62
2024/01/15 10:08:47;;;;;;;20.05;6.97;;;0.40;99.90;;;;;;5031692;28;20513;-62
2024/01/15 10:11:13;;;;;;;14.50;6.28;;;0.40;99.90;;;;;;5027159;28;20057;-62
2024/01/15 10:13:39;;;;;;;22.60;12.00;;;0.40;99.90;;;;;;5031264;28;20495;-62
2024/01/15 10:16:05;;;;;;;18.45;6.82;;;0.30;99.90;;;;;;5027273;28;20043;-62
2024/01/15 10:18:31;;;;;;;18.38;7.80;;;0.30;99.90;;;;;;5029257;28;20025;-62
2024/01/15 10:20:57;;;;;;;23.90;12.02;;;0.30;99.90;;;;;;5030991;28;20033;-62
2024/01/15 10:23:26;;;;;;;19.77;7.05;;;0.40;99.90;;;;;;5030380;28;20022;-61
2024/01/15 10:25:52;;;;;;;17.20;7.00;;;0.40;99.90;;;;;;5031094;28;20025;-62
2024/01/15 10:28:19;;;;;;;15.77;6.35;;;0.40;99.90;;;;;;5030299;28;20108;-63
2024/01/15 10:30:45;;;;;;;26.00;6.03;;;0.50;99.90;;;;;;5030572;28;20033;-62
2024/01/15 10:33:11;;;;;;;17.63;7.75;;;0.50;99.90;;;;;;5029106;28;20458;-62
2024/01/15 10:35:38;;;;;;;17.45;6.80;;;0.50;99.90;;;;;;5030956;28;20036;-62
2024/01/15 10:38:05;;;;;;;17.40;8.07;;;0.50;99.90;;;;;;5030473;28;20443;-62
2024/01/15 10:40:31;;;;;;;17.75;6.90;;;0.50;99.90;;;;;;5031806;28;20916;-62
2024/01/15 10:42:57;;;;;;;18.85;9.90;;;0.60;99.90;;;;;;5031010;28;20488;-62
2024/01/15 10:45:24;;;;;;;19.50;8.70;;;0.60;99.90;;;;;;5027733;28;20080;-62
2024/01/15 10:47:50;;;;;;;20.27;8.50;;;0.60;99.90;;;;;;5030210;28;20064;-62
2024/01/15 10:50:16;;;;;;;14.55;5.82;;;0.70;99.90;;;;;;5028736;28;20057;-62
2024/01/15 10:52:45;;;;;;;17.60;8.02;;;0.70;99.90;;;;;;5030549;28;20025;-62
2024/01/15 10:55:11;;;;;;;20.83;10.87;;;0.70;99.90;;;;;;5027029;28;20057;-62
2024/01/15 10:57:38;;;;;;;17.13;7.03;;;0.70;99.90;;;;;;5029484;28;20488;-61
2024/01/15 11:00:05;;;;;;;17.77;7.32;;;0.60;99.90;;;;;;5030520;28;20071;-63
2024/01/15 11:02:36;;;;;;;21.27;8.85;;;0.60;99.90;;;;;;5026445;28;20029;-63
2024/01/15 11:05:02;;;;;;;15.90;6.13;;;0.60;99.90;;;;;;5030413;28;20021;-63
2024/01/15 11:07:30;;;;;;;19.52;9.57;;;0.70;99.90;;;;;;5030032;28;20128;-62
2024/01/15 11:09:58;;;;;;;20.75;7.57;;;0.70;99.90;;;;;;5030563;28;20044;-62
2024/01/15 11:12:24;;;;;;;12.05;5.15;;;0.70;99.90;;;;;;5029518;28;20400;-63
2024/01/15 11:14:50;;;;;;;18.88;7.38;;;0.70;99.90;;;;;;5028055;28;20457;-63
2024/01/15 11:17:17;;;;;;;13.85;5.18;;;0.80;99.90;;;;;;5028089;28;20129;-62
2024/01/15 11:19:44;;;;;;;16.30;6.25;;;0.80;99.90;;;;;;5029951;28;20048;-62
2024/01/15 11:22:29;;;;;;;19.48;8.43;;;0.80;99.90;;;;;;5029933;28;20511;-62
2024/01/15 11:24:54;;;;;;;16.55;6.05;;;0.80;99.90;;;;;;5030536;28;20040;-63
2024/01/15 11:27:52;;;;;;;14.73;5.63;;;0.80;99.90;;;;;;5029037;28;20029;-63
2024/01/15 11:30:19;;;;;;;19.83;7.07;;;0.90;99.90;;;;;;5026991;28;20025;-62
2024/01/15 11:32:46;;;;;;;15.60;6.38;;;0.90;99.90;;;;;;5028055;28;20021;-62
2024/01/15 11:35:14;;;;;;;14.20;6.32;;;0.90;99.90;;;;;;5029596;28;20057;-62
2024/01/15 11:37:54;;;;;;;17.33;7.22;;;0.90;99.90;;;;;;5028136;28;20176;-63
2024/01/15 11:40:21;;;;;;;13.25;6.15;;;0.90;99.90;;;;;;5028676;28;20487;-63
2024/01/15 11:42:48;;;;;;;16.08;6.68;;;0.90;99.90;;;;;;5029551;28;20030;-62
2024/01/15 11:45:23;;;;;;;19.77;9.43;;;0.90;99.90;;;;;;5027923;28;20075;-62
2024/01/15 11:47:55;;;;;;;23.50;8.38;;;0.90;99.90;;;;;;5028314;28;20057;-62
2024/01/15 11:50:21;;;;;;;15.55;5.75;;;0.90;99.90;;;;;;5029035;28;20087;-62
2024/01/15 11:52:58;;;;;;;18.60;8.40;;;0.90;99.90;;;;;;5029349;28;20026;-62
2024/01/15 11:55:30;;;;;;;23.00;10.93;;;0.90;99.90;;;;;;5027104;28;20449;-62
2024/01/15 11:58:00;;;;;;;16.35;7.97;;;1.00;99.90;;;;;;5030327;28;20099;-62
2024/01/15 12:00:26;;;;;;;17.70;7.13;;;1.00;99.90;;;;;;5029038;28;20026;-62
2024/01/15 12:02:51;;;;;;;13.75;5.72;;;0.90;99.90;;;;;;5025847;28;20373;-62
2024/01/15 12:05:19;;;;;;;24.55;7.57;;;0.90;99.90;;;;;;5027148;28;20532;-63
2024/01/15 12:07:50;;;;;;;14.45;6.28;;;0.90;99.90;;;;;;5029212;28;20325;-63
2024/01/15 12:10:18;;;;;;;14.18;6.18;;;1.10;99.90;;;;;;5027976;28;20026;-63
2024/01/15 12:13:02;;;;;;;18.15;6.22;;;1.10;99.90;;;;;;5028906;28;20060;-63
2024/01/15 12:15:29;;;;;;;17.42;8.65;;;1.00;99.90;;;;;;5026308;28;20496;-64
2024/01/15 12:18:02;;;;;;;15.02;5.07;;;0.90;99.90;;;;;;5028365;28;20132;-63
2024/01/15 12:20:29;;;;;;;15.88;6.53;;;1.00;99.90;;;;;;5028196;28;20108;-63
2024/01/15 12:22:57;;;;;;;14.93;8.52;;;1.00;99.90;;;;;;5028763;28;20021;-64
2024/01/15 12:25:24;;;;;;;14.68;5.18;;;1.00;99.90;;;;;;5028631;28;20022;-63
2024/01/15 12:27:51;;;;;;;12.75;5.05;;;1.00;99.90;;;;;;5028741;28;20029;-64
2024/01/15 12:30:17;;;;;;;8.05;3.88;;;1.10;99.90;;;;;;5027700;28;20048;-63
2024/01/15 12:32:42;;;;;;;12.32;4.70;;;1.10;99.90;;;;;;5025229;28;20033;-63
2024/01/15 12:35:10;;;;;;;15.75;6.43;;;1.20;99.90;;;;;;5027612;28;20025;-63
2024/01/15 12:37:36;;;;;;;13.82;4.43;;;1.10;99.90;;;;;;5028126;28;20030;-63
2024/01/15 12:40:06;;;;;;;17.55;6.65;;;1.20;99.90;;;;;;5028461;28;20463;-63